createdAt,value
2018-12-19T00:00:57.187Z,73.20
2018-12-19T00:03:32.156Z,73.40
2018-12-19T00:06:00.859Z,73.10
2018-12-19T00:08:29.602Z,73.30
2018-12-19T00:10:58.416Z,73.00
2018-12-19T00:13:33.413Z,72.90
2018-12-19T00:16:02.209Z,72.50
2018-12-19T00:18:31.018Z,72.10
2018-12-19T00:20:59.711Z,71.90
2018-12-19T00:23:28.404Z,71.80
2018-12-19T00:25:57.092Z,71.70
2018-12-19T00:28:25.792Z,71.40
2018-12-19T00:30:54.494Z,71.40
2018-12-19T00:33:23.235Z,71.20
2018-12-19T00:35:58.192Z,71.50
2018-12-19T00:38:26.892Z,71.60
2018-12-19T00:43:23.990Z,71.20
2018-12-19T00:45:52.708Z,71.00
2018-12-19T00:48:21.402Z,70.80
2018-12-19T00:50:50.327Z,70.80
2018-12-19T00:53:19.022Z,70.80
2018-12-19T00:55:47.735Z,72.40
2018-12-19T00:58:16.419Z,70.90
2018-12-19T01:00:45.128Z,71.00
2018-12-19T01:03:20.092Z,70.80
2018-12-19T01:05:48.818Z,70.60
2018-12-19T01:08:17.588Z,71.20
2018-12-19T01:10:46.235Z,70.80
2018-12-19T01:13:16.311Z,70.80
2018-12-19T01:15:45.016Z,70.80
2018-12-19T01:18:13.715Z,70.60
2018-12-19T01:20:48.520Z,70.10
2018-12-19T01:23:18.124Z,70.70
2018-12-19T01:25:46.828Z,70.00
2018-12-19T01:28:15.517Z,70.20
2018-12-19T01:30:44.207Z,70.20
2018-12-19T01:33:19.139Z,70.80
2018-12-19T01:35:47.947Z,70.60
2018-12-19T01:38:17.585Z,71.00
2018-12-19T01:40:46.292Z,71.60
2018-12-19T01:43:15.073Z,71.80
2018-12-19T01:45:43.756Z,71.80
2018-12-19T01:48:12.496Z,72.10
2018-12-19T01:50:41.187Z,72.30
2018-12-19T01:53:09.919Z,72.50
2018-12-19T01:55:38.755Z,72.60
2018-12-19T02:00:35.836Z,72.60
2018-12-19T02:03:04.619Z,72.70
2018-12-19T02:05:39.491Z,72.60
2018-12-19T02:08:08.231Z,72.90
2018-12-19T02:10:42.979Z,72.60
2018-12-19T02:15:40.067Z,72.20
2018-12-19T02:18:15.049Z,72.10
2018-12-19T02:20:43.743Z,72.40
2018-12-19T02:23:12.488Z,72.50
2018-12-19T02:25:41.291Z,72.20
2018-12-19T02:28:10.057Z,72.30
2018-12-19T02:30:38.709Z,72.50
2018-12-19T02:35:42.167Z,72.20
2018-12-19T02:38:10.903Z,72.10
2018-12-19T02:40:40.528Z,72.20
2018-12-19T02:43:09.207Z,72.00
2018-12-19T02:45:37.891Z,72.20
2018-12-19T02:48:06.628Z,72.60
2018-12-19T02:50:35.367Z,72.30
2018-12-19T02:53:04.128Z,71.80
2018-12-19T02:55:32.835Z,71.60
2018-12-19T02:58:01.509Z,71.70
2018-12-19T03:00:30.212Z,71.50
2018-12-19T03:05:27.266Z,71.60
2018-12-19T03:07:55.945Z,71.10
2018-12-19T03:10:24.615Z,71.20
2018-12-19T03:15:21.723Z,71.60
2018-12-19T03:17:50.567Z,71.30
2018-12-19T03:20:19.251Z,71.50
2018-12-19T03:22:47.960Z,71.70
2018-12-19T03:25:16.645Z,71.50
2018-12-19T03:27:45.364Z,71.00
2018-12-19T03:30:14.092Z,71.00
2018-12-19T03:32:42.834Z,71.60
2018-12-19T03:35:11.561Z,71.00
2018-12-19T03:37:46.295Z,71.20
2018-12-19T03:40:15.027Z,71.10
2018-12-19T03:42:43.711Z,71.20
2018-12-19T03:45:12.388Z,71.80
2018-12-19T03:47:41.069Z,72.20
2018-12-19T03:50:10.656Z,72.20
2018-12-19T03:52:39.469Z,72.00
2018-12-19T03:57:46.464Z,71.70
2018-12-19T04:00:15.279Z,72.00
2018-12-19T04:02:43.955Z,72.10
2018-12-19T04:05:16.533Z,72.40
2018-12-19T04:12:42.049Z,72.80
2018-12-19T04:15:10.812Z,73.60
2018-12-19T04:17:39.503Z,73.60
2018-12-19T04:20:08.335Z,73.80
2018-12-19T04:22:43.363Z,74.60
2018-12-19T04:25:12.039Z,74.70
2018-12-19T04:27:40.720Z,75.20
2018-12-19T04:30:09.473Z,75.30
2018-12-19T04:32:38.381Z,76.10
2018-12-19T04:35:07.128Z,76.50
2018-12-19T04:40:05.767Z,76.50
2018-12-19T04:42:34.832Z,76.50
2018-12-19T04:45:03.851Z,76.50
2018-12-19T04:47:32.528Z,76.40
2018-12-19T04:50:01.208Z,76.50
2018-12-19T04:52:29.946Z,77.20
2018-12-19T04:54:58.635Z,77.30
2018-12-19T04:57:27.386Z,77.50
2018-12-19T05:00:02.413Z,78.00
2018-12-19T05:02:31.137Z,78.50
2018-12-19T05:05:01.835Z,78.80
2018-12-19T05:07:30.631Z,79.10
2018-12-19T05:10:12.170Z,78.90
2018-12-19T05:12:36.248Z,79.50
2018-12-19T05:15:05.501Z,80.20
2018-12-19T05:17:34.270Z,79.20
2018-12-19T05:20:03.311Z,79.40
2018-12-19T05:25:00.411Z,80.10
2018-12-19T05:30:04.423Z,80.40
2018-12-19T05:32:33.144Z,81.00
2018-12-19T05:35:01.833Z,80.60
2018-12-19T05:37:30.516Z,80.80
2018-12-19T05:45:08.867Z,80.40
2018-12-19T05:50:07.427Z,81.30
2018-12-19T05:52:36.351Z,81.00
2018-12-19T05:55:05.649Z,80.60
2018-12-19T05:57:34.418Z,80.20
2018-12-19T06:00:03.529Z,80.00
2018-12-19T06:02:32.299Z,80.10
2018-12-19T06:05:00.975Z,80.20
2018-12-19T06:10:05.439Z,80.60
2018-12-19T06:12:35.148Z,80.50
2018-12-19T06:15:04.448Z,80.90
2018-12-19T06:20:02.615Z,81.40
2018-12-19T06:25:06.027Z,81.60
2018-12-19T06:27:35.630Z,82.00
2018-12-19T06:30:04.785Z,82.00
2018-12-19T06:32:33.452Z,82.00
2018-12-19T06:35:08.329Z,82.20
2018-12-19T06:37:43.141Z,82.40
2018-12-19T06:40:11.821Z,82.40
2018-12-19T06:45:15.140Z,82.80
2018-12-19T06:55:17.471Z,83.40
2018-12-19T06:57:46.147Z,83.60
2018-12-19T07:00:14.921Z,84.20
2018-12-19T07:02:43.596Z,83.80
2018-12-19T07:05:12.270Z,83.80
2018-12-19T07:10:21.828Z,84.10
2018-12-19T07:12:50.499Z,84.10
2018-12-19T07:20:28.573Z,84.40
2018-12-19T07:25:25.580Z,84.70
2018-12-19T07:27:54.260Z,85.10
2018-12-19T07:37:54.244Z,84.60
2018-12-19T07:42:57.623Z,84.60
2018-12-19T07:45:26.300Z,84.80
2018-12-19T07:47:54.984Z,84.60
2018-12-19T07:57:56.783Z,85.50
2018-12-19T08:00:31.635Z,85.60
2018-12-19T08:03:00.355Z,85.50
2018-12-19T08:10:32.119Z,85.90
2018-12-19T08:13:00.796Z,85.90
2018-12-19T08:18:04.068Z,86.00
2018-12-19T08:23:14.353Z,85.50
2018-12-19T08:25:43.080Z,85.50
2018-12-19T08:28:11.763Z,85.60
2018-12-19T08:30:40.487Z,85.50
2018-12-19T08:33:09.159Z,85.60
2018-12-19T08:35:44.054Z,85.50
2018-12-19T08:38:12.755Z,85.70
2018-12-19T08:40:42.446Z,85.90
2018-12-19T08:43:11.200Z,86.00
2018-12-19T08:45:40.295Z,86.10
2018-12-19T08:48:08.995Z,86.20
2018-12-19T08:50:37.767Z,86.30
2018-12-19T08:53:06.502Z,86.50
2018-12-19T08:55:35.251Z,86.60
2018-12-19T08:58:08.940Z,86.50
2018-12-19T09:00:43.879Z,86.90
2018-12-19T09:03:18.772Z,86.90
2018-12-19T09:05:48.456Z,86.90
2018-12-19T09:08:17.160Z,87.10
2018-12-19T09:10:45.910Z,86.90
2018-12-19T09:13:20.812Z,86.90
2018-12-19T09:18:25.200Z,86.90
2018-12-19T09:20:53.928Z,86.70
2018-12-19T09:25:51.028Z,86.10
2018-12-19T09:28:19.767Z,86.00
2018-12-19T09:30:54.556Z,86.70
2018-12-19T09:33:27.416Z,86.00
2018-12-19T09:36:00.008Z,85.20
2018-12-19T09:38:28.692Z,84.60
2018-12-19T09:40:57.377Z,84.70
2018-12-19T09:43:26.160Z,84.00
2018-12-19T09:46:01.166Z,84.40
2018-12-19T09:48:36.015Z,84.60
2018-12-19T09:53:40.283Z,84.40
2018-12-19T09:56:09.929Z,84.40
2018-12-19T09:58:38.624Z,83.90
2018-12-19T10:01:07.314Z,83.60
2018-12-19T10:03:36.031Z,83.60
2018-12-19T10:06:04.887Z,83.20
2018-12-19T10:08:34.390Z,82.90
2018-12-19T10:11:03.175Z,82.90
2018-12-19T10:13:31.851Z,82.80
2018-12-19T10:16:00.547Z,82.80
2018-12-19T10:18:29.243Z,82.60
2018-12-19T10:21:04.388Z,82.40
2018-12-19T10:23:33.106Z,82.30
2018-12-19T10:26:13.860Z,82.30
2018-12-19T10:31:11.829Z,82.90
2018-12-19T10:33:40.584Z,82.90
2018-12-19T10:36:09.282Z,82.60
2018-12-19T10:38:44.199Z,82.60
2018-12-19T10:41:13.023Z,82.40
2018-12-19T10:46:10.531Z,82.20
2018-12-19T10:51:07.619Z,81.60
2018-12-19T10:53:36.343Z,81.80
2018-12-19T10:56:11.224Z,82.20
2018-12-19T10:58:40.736Z,82.20
2018-12-19T11:01:09.469Z,82.20
2018-12-19T11:03:38.176Z,82.50
2018-12-19T11:06:06.888Z,82.50
2018-12-19T11:08:41.784Z,82.40
2018-12-19T11:11:16.600Z,82.60
2018-12-19T11:13:51.576Z,82.70
2018-12-19T11:16:20.267Z,82.20
2018-12-19T11:21:17.348Z,82.00
2018-12-19T11:23:46.039Z,81.80
2018-12-19T11:28:49.497Z,81.70
2018-12-19T11:33:58.868Z,81.50
2018-12-19T11:38:56.003Z,81.60
2018-12-19T11:41:24.720Z,81.70
2018-12-19T11:46:22.698Z,81.40
2018-12-19T11:51:26.110Z,81.50
2018-12-19T11:56:29.471Z,81.40
2018-12-19T11:58:58.229Z,81.80
2018-12-19T12:04:02.525Z,81.70
2018-12-19T12:06:37.320Z,81.80
2018-12-19T12:09:07.240Z,81.80
2018-12-19T12:14:12.319Z,81.20
2018-12-19T12:16:47.360Z,81.00
2018-12-19T12:19:22.141Z,81.00
2018-12-19T12:21:50.943Z,81.40
2018-12-19T12:24:19.680Z,81.60
2018-12-19T12:26:49.176Z,81.60
2018-12-19T12:29:18.864Z,81.60
2018-12-19T12:34:15.971Z,81.00
2018-12-19T12:41:54.016Z,80.00
2018-12-19T12:44:22.696Z,79.70
2018-12-19T12:51:54.382Z,79.50
2018-12-19T12:54:23.129Z,79.60
2018-12-19T12:56:51.813Z,79.10
2018-12-19T12:59:20.579Z,79.10
2018-12-19T13:04:30.118Z,78.20
2018-12-19T13:06:58.967Z,77.90
2018-12-19T13:14:30.554Z,77.90
2018-12-19T13:19:33.909Z,78.20
2018-12-19T13:24:37.175Z,78.30
2018-12-19T13:27:12.010Z,78.40
2018-12-19T13:29:40.911Z,78.30
2018-12-19T13:49:52.577Z,77.90
2018-12-19T13:52:21.295Z,77.90
2018-12-19T13:54:49.988Z,77.90
2018-12-19T13:57:18.685Z,77.90
2018-12-19T13:59:47.376Z,76.90
2018-12-19T14:02:16.943Z,77.00
2018-12-19T14:04:52.052Z,76.60
2018-12-19T14:07:20.845Z,76.80
2018-12-19T14:12:17.973Z,76.70
2018-12-19T14:17:21.264Z,76.90
2018-12-19T14:19:56.301Z,77.00
2018-12-19T14:22:24.987Z,77.10
2018-12-19T14:24:53.753Z,77.10
2018-12-19T14:29:50.890Z,77.30
2018-12-19T14:32:19.699Z,77.30
2018-12-19T14:34:54.604Z,77.30
2018-12-19T14:37:29.588Z,77.30
2018-12-19T14:39:58.336Z,77.10
2018-12-19T14:42:33.209Z,77.50
2018-12-19T14:45:02.041Z,77.40
2018-12-19T14:47:30.740Z,76.90
2018-12-19T14:50:00.307Z,76.60
2018-12-19T14:52:28.979Z,76.70
2018-12-19T14:55:04.110Z,77.50
2018-12-19T14:57:38.939Z,78.30
2018-12-19T15:00:10.025Z,79.10
2018-12-19T15:10:10.340Z,81.40
2018-12-19T15:12:39.147Z,82.00
2018-12-19T15:15:13.909Z,82.50
2018-12-19T15:17:42.608Z,83.20
2018-12-19T15:20:11.367Z,83.80
2018-12-19T15:22:40.872Z,84.50
2018-12-19T15:25:09.639Z,84.30
2018-12-19T15:27:38.315Z,84.20
2018-12-19T15:32:37.216Z,83.80
2018-12-19T15:35:11.991Z,83.60
2018-12-19T15:37:40.739Z,83.60
2018-12-19T15:42:37.951Z,83.00
2018-12-19T15:45:12.928Z,82.60
2018-12-19T15:50:16.086Z,83.10
2018-12-19T15:52:51.036Z,82.90
2018-12-19T15:55:19.721Z,83.00
2018-12-19T16:00:17.035Z,83.00
2018-12-19T16:02:45.808Z,83.40
2018-12-19T16:07:49.067Z,83.00
2018-12-19T16:15:22.581Z,82.50
2018-12-19T16:25:23.580Z,83.50
2018-12-19T16:30:22.082Z,83.80
2018-12-19T16:45:18.940Z,82.20
2018-12-19T16:50:16.000Z,82.00
2018-12-19T16:52:44.747Z,82.00
2018-12-19T16:55:13.525Z,81.70
2018-12-19T16:57:43.069Z,81.80
2018-12-19T17:02:46.460Z,81.20
2018-12-19T17:10:11.932Z,82.20
2018-12-19T17:15:15.249Z,82.50
2018-12-19T17:20:12.430Z,82.80
2018-12-19T17:22:41.176Z,82.40
2018-12-19T17:25:09.851Z,82.80
2018-12-19T17:30:13.906Z,82.40
2018-12-19T17:32:49.142Z,82.40
2018-12-19T17:42:59.393Z,83.50
2018-12-19T17:48:00.716Z,83.40
2018-12-19T17:53:03.967Z,83.20
2018-12-19T18:00:36.769Z,83.80
2018-12-19T18:05:39.924Z,83.60
2018-12-19T18:13:06.374Z,83.50
2018-12-19T18:15:35.223Z,83.90
2018-12-19T18:18:04.028Z,84.20
2018-12-19T18:20:38.838Z,83.90
2018-12-19T18:25:42.054Z,84.00
2018-12-19T18:28:17.684Z,84.30
2018-12-19T18:30:52.853Z,84.20
2018-12-19T18:33:28.087Z,84.30
2018-12-19T19:03:29.203Z,85.30
2018-12-19T19:16:03.932Z,85.90
2018-12-19T19:18:32.652Z,86.10
2018-12-19T19:26:04.211Z,86.60
2018-12-19T19:31:02.251Z,86.10
2018-12-19T19:53:31.572Z,84.90
2018-12-19T19:56:06.459Z,85.30
2018-12-19T19:58:35.135Z,85.50
2018-12-19T20:01:09.943Z,85.50
2018-12-19T20:03:43.636Z,85.30
2018-12-19T20:06:12.501Z,85.70
2018-12-19T20:16:12.695Z,86.90
2018-12-19T20:23:44.466Z,87.70
2018-12-19T20:26:19.363Z,88.00
2018-12-19T20:39:00.275Z,90.00
2018-12-19T20:41:35.283Z,90.30
2018-12-19T20:46:34.548Z,90.50
2018-12-19T20:49:03.367Z,90.80
2018-12-19T20:51:38.340Z,91.00
2018-12-19T20:54:07.276Z,90.90
2018-12-19T20:56:37.541Z,91.00
2018-12-19T20:59:07.094Z,91.20
2018-12-19T21:01:35.962Z,91.30
2018-12-19T21:04:10.903Z,91.40
2018-12-19T21:06:39.597Z,91.30
2018-12-19T21:09:08.823Z,91.50
2018-12-19T21:11:37.618Z,91.40
2018-12-19T21:14:06.456Z,91.40
2018-12-19T21:16:40.649Z,91.60
2018-12-19T21:21:37.760Z,91.70
2018-12-19T21:24:06.452Z,91.90
2018-12-19T21:26:35.959Z,92.00
2018-12-19T21:31:39.340Z,92.40
2018-12-19T21:34:14.450Z,92.40
2018-12-19T21:36:49.224Z,92.40
2018-12-19T21:39:17.925Z,92.50
2018-12-19T21:44:20.689Z,92.70
2018-12-19T21:46:49.517Z,92.90
2018-12-19T21:49:24.556Z,93.00
2018-12-19T21:51:53.346Z,93.00
2018-12-19T21:54:22.097Z,93.10
2018-12-19T21:56:56.928Z,93.10
2018-12-19T21:59:31.963Z,93.20
2018-12-19T22:02:00.653Z,93.20
2018-12-19T22:06:57.984Z,93.30
2018-12-19T22:09:33.183Z,93.30
2018-12-19T22:14:31.329Z,93.50
2018-12-19T22:19:46.633Z,93.50
2018-12-19T22:22:16.235Z,93.70
2018-12-19T22:24:45.075Z,93.80
2018-12-19T22:27:13.771Z,93.80
2018-12-19T22:29:42.550Z,93.70
2018-12-19T22:32:17.512Z,93.70
2018-12-19T22:34:46.350Z,93.60
2018-12-19T22:37:15.035Z,93.70
2018-12-19T22:42:12.187Z,93.80
2018-12-19T22:44:40.903Z,93.80
2018-12-19T22:47:09.644Z,93.70
2018-12-19T22:49:38.547Z,93.90
2018-12-19T22:52:13.533Z,94.10
2018-12-19T22:54:42.388Z,94.10
2018-12-19T22:57:17.262Z,94.20
2018-12-19T22:59:52.421Z,94.20
2018-12-19T23:02:27.369Z,94.40
2018-12-19T23:04:57.780Z,94.40
2018-12-19T23:07:32.773Z,94.30
2018-12-19T23:12:36.190Z,94.30
2018-12-19T23:15:05.235Z,94.20
2018-12-19T23:17:40.004Z,94.10
2018-12-19T23:20:10.471Z,94.10
2018-12-19T23:22:39.299Z,94.00
2018-12-19T23:25:08.248Z,94.10
2018-12-19T23:27:37.152Z,94.00
2018-12-19T23:30:08.678Z,94.00
2018-12-19T23:32:37.532Z,94.00
2018-12-19T23:35:12.419Z,94.30
2018-12-19T23:37:41.128Z,94.30
2018-12-19T23:40:09.878Z,94.30
2018-12-19T23:42:38.755Z,94.30
2018-12-19T23:45:07.646Z,94.40
2018-12-19T23:47:36.340Z,94.50
2018-12-19T23:50:05.288Z,94.50
2018-12-19T23:52:40.182Z,94.60
2018-12-19T23:55:08.989Z,95.00
2018-12-19T23:57:37.655Z,94.00
